Time;durP1;ratioP1;P1;durP2;ratioP2;P2;SDS_P1;SDS_P2;PMS_P1;PMS_P2;Temp;Humidity;BMP_temperature;BMP_pressure;BME280_temperature;BME280_humidity;BME280_pressure;Samples;Min_cycle;Max_cycle;Signal;HPM_P1;HPM_P2
2022/07/27 00:03:22;;;;;;;11.75;7.57;;;;;;;;;;10059473;28;20056;-62
2022/07/27 00:08:19;;;;;;;8.35;4.45;;;;;;;;;;10066056;28;20053;-63
2022/07/27 00:13:12;;;;;;;6.73;6.03;;;;;;;;;;10064243;28;20050;-62
2022/07/27 00:18:07;;;;;;;12.52;6.60;;;;;;;;;;10065734;28;20320;-62
2022/07/27 00:23:00;;;;;;;13.07;6.65;;;;;;;;;;10058364;28;20042;-62
2022/07/27 00:27:55;;;;;;;9.57;6.75;;;;;;;;;;10059445;28;20061;-62
2022/07/27 00:32:50;;;;;;;234.93;20.75;;;;;;;;;;10064306;28;20109;-62
2022/07/27 00:37:44;;;;;;;19.05;3.88;;;;;;;;;;10064754;28;20057;-63
2022/07/27 00:42:38;;;;;;;41.60;6.28;;;;;;;;;;10068391;28;20141;-62
2022/07/27 00:47:32;;;;;;;15.88;4.40;;;;;;;;;;10066803;28;20052;-60
2022/07/27 00:52:28;;;;;;;16.30;5.60;;;;;;;;;;10067372;28;20119;-62
2022/07/27 00:57:22;;;;;;;10.50;4.50;;;;;;;;;;10070222;28;20088;-64
2022/07/27 01:02:15;;;;;;;8.00;4.43;;;;;;;;;;10069829;28;20132;-64
2022/07/27 01:07:12;;;;;;;7.38;3.90;;;;;;;;;;10068580;28;20057;-64
2022/07/27 01:12:06;;;;;;;8.50;4.13;;;;;;;;;;10069289;28;20045;-64
2022/07/27 01:16:59;;;;;;;7.90;4.80;;;;;;;;;;10061913;28;20076;-64
2022/07/27 01:21:53;;;;;;;4.35;3.85;;;;;;;;;;10064440;28;20050;-65
2022/07/27 01:26:47;;;;;;;5.10;4.10;;;;;;;;;;10068356;28;20068;-64
2022/07/27 01:31:41;;;;;;;5.95;4.32;;;;;;;;;;10053955;28;20050;-65
2022/07/27 01:36:35;;;;;;;6.53;3.88;;;;;;;;;;10067951;28;20107;-64
2022/07/27 01:41:29;;;;;;;5.32;4.03;;;;;;;;;;10068076;28;20057;-64
2022/07/27 01:46:23;;;;;;;5.70;4.30;;;;;;;;;;10067684;28;20050;-65
2022/07/27 01:51:17;;;;;;;10.43;5.55;;;;;;;;;;10068297;28;20504;-64
2022/07/27 01:56:12;;;;;;;6.18;3.70;;;;;;;;;;10067503;28;20045;-64
2022/07/27 02:01:06;;;;;;;7.28;4.72;;;;;;;;;;10067346;28;20049;-64
2022/07/27 02:06:02;;;;;;;5.03;4.53;;;;;;;;;;10066460;28;20167;-64
2022/07/27 02:16:11;;;;;;;5.20;3.60;;;;;;;;;;10067204;28;20049;-65
2022/07/27 02:21:09;;;;;;;6.15;3.97;;;;;;;;;;10064357;28;20065;-65
2022/07/27 02:26:05;;;;;;;11.75;4.15;;;;;;;;;;10066088;28;20095;-65
2022/07/27 02:30:59;;;;;;;5.35;3.65;;;;;;;;;;10067123;28;20060;-64
2022/07/27 02:35:53;;;;;;;4.20;3.80;;;;;;;;;;10066532;28;20048;-65
2022/07/27 02:40:48;;;;;;;7.55;3.97;;;;;;;;;;10066170;28;20046;-65
2022/07/27 02:45:42;;;;;;;5.28;3.97;;;;;;;;;;10066426;28;20050;-65
2022/07/27 02:50:38;;;;;;;5.65;4.13;;;;;;;;;;10066116;28;20116;-65
2022/07/27 02:55:32;;;;;;;4.18;3.78;;;;;;;;;;10065819;28;20046;-65
2022/07/27 03:00:26;;;;;;;6.97;4.18;;;;;;;;;;10063780;28;20057;-65
2022/07/27 03:05:21;;;;;;;9.75;7.35;;;;;;;;;;10065772;28;20081;-65
2022/07/27 03:10:15;;;;;;;9.02;6.22;;;;;;;;;;10065597;28;20084;-64
2022/07/27 03:15:13;;;;;;;9.00;7.85;;;;;;;;;;10065901;28;20073;-64
2022/07/27 03:20:10;;;;;;;10.55;7.20;;;;;;;;;;10065864;28;20419;-64
2022/07/27 03:25:06;;;;;;;7.70;6.72;;;;;;;;;;10065882;28;20129;-64
2022/07/27 03:30:00;;;;;;;8.55;5.85;;;;;;;;;;10059973;28;20050;-65
2022/07/27 03:34:55;;;;;;;5.85;5.25;;;;;;;;;;10059034;28;20092;-65
2022/07/27 03:39:48;;;;;;;5.25;4.75;;;;;;;;;;10071755;28;20049;-65
2022/07/27 03:44:43;;;;;;;7.47;6.10;;;;;;;;;;10071908;28;20041;-65
2022/07/27 03:49:37;;;;;;;4.97;4.43;;;;;;;;;;10072113;28;20056;-64
2022/07/27 03:54:30;;;;;;;5.50;4.22;;;;;;;;;;10069495;28;20463;-65
2022/07/27 03:59:25;;;;;;;3.88;3.47;;;;;;;;;;10063885;28;20054;-65
2022/07/27 04:04:19;;;;;;;3.85;3.22;;;;;;;;;;10068437;28;20564;-65
2022/07/27 04:09:15;;;;;;;4.22;3.10;;;;;;;;;;10066555;28;20507;-65
2022/07/27 04:14:13;;;;;;;4.32;3.67;;;;;;;;;;10066941;28;20053;-63
2022/07/27 04:19:06;;;;;;;3.67;3.38;;;;;;;;;;10063653;28;20061;-65
2022/07/27 04:24:01;;;;;;;5.10;3.22;;;;;;;;;;10066024;28;20084;-64
2022/07/27 04:28:56;;;;;;;4.30;3.22;;;;;;;;;;10069266;28;20466;-64
2022/07/27 04:33:49;;;;;;;6.82;3.67;;;;;;;;;;10070366;28;20492;-64
2022/07/27 04:38:43;;;;;;;4.13;3.58;;;;;;;;;;10070099;28;20060;-64
2022/07/27 04:43:37;;;;;;;7.65;3.78;;;;;;;;;;10067828;28;20048;-64
2022/07/27 04:48:53;;;;;;;6.70;4.32;;;;;;;;;;10069920;28;20136;-64
2022/07/27 04:53:47;;;;;;;9.65;4.55;;;;;;;;;;10069551;28;20503;-64
2022/07/27 04:58:50;;;;;;;6.40;4.55;;;;;;;;;;10068901;28;20049;-64
2022/07/27 05:03:45;;;;;;;6.60;5.25;;;;;;;;;;10068535;28;20526;-64
2022/07/27 05:08:39;;;;;;;5.03;4.45;;;;;;;;;;10069095;28;20049;-64
2022/07/27 05:13:36;;;;;;;10.25;6.47;;;;;;;;;;10068770;28;20058;-64
2022/07/27 05:18:31;;;;;;;7.15;5.47;;;;;;;;;;10066754;28;20428;-64
2022/07/27 05:23:25;;;;;;;9.50;4.93;;;;;;;;;;10068655;28;20058;-64
2022/07/27 05:28:19;;;;;;;11.07;5.63;;;;;;;;;;10067367;28;20041;-64
2022/07/27 05:33:12;;;;;;;13.65;5.40;;;;;;;;;;10065249;28;20057;-64
2022/07/27 05:38:07;;;;;;;15.05;6.45;;;;;;;;;;10065996;28;20085;-64
2022/07/27 05:43:02;;;;;;;18.25;6.20;;;;;;;;;;10063852;28;20056;-64
2022/07/27 05:47:59;;;;;;;13.50;7.03;;;;;;;;;;10067768;28;20643;-64
2022/07/27 05:52:53;;;;;;;11.23;6.13;;;;;;;;;;10067442;28;20071;-63
2022/07/27 05:57:47;;;;;;;11.15;6.68;;;;;;;;;;10066787;28;20053;-64
2022/07/27 06:02:41;;;;;;;9.80;6.70;;;;;;;;;;10066297;28;20050;-64
2022/07/27 06:12:47;;;;;;;9.48;7.20;;;;;;;;;;10066915;28;20046;-64
2022/07/27 06:17:41;;;;;;;9.50;5.90;;;;;;;;;;10062214;28;20546;-63
2022/07/27 06:22:48;;;;;;;6.20;5.38;;;;;;;;;;10060765;28;20059;-64
2022/07/27 06:27:43;;;;;;;12.10;6.00;;;;;;;;;;10060997;28;20499;-65
2022/07/27 06:32:38;;;;;;;8.48;5.30;;;;;;;;;;10063844;28;20167;-64
2022/07/27 06:37:35;;;;;;;6.55;5.60;;;;;;;;;;10051032;28;20056;-64
2022/07/27 06:42:28;;;;;;;7.28;5.75;;;;;;;;;;10048937;28;20084;-64
2022/07/27 06:47:21;;;;;;;9.05;7.85;;;;;;;;;;10054323;28;20041;-64
2022/07/27 06:52:21;;;;;;;;;;;;;;;;;;10061175;28;20057;-63
2022/07/27 06:57:18;;;;;;;7.80;6.72;;;;;;;;;;10059140;28;19933;-69
2022/07/27 07:02:14;;;;;;;12.02;8.07;;;;;;;;;;10064707;28;20050;-72
2022/07/27 07:07:09;;;;;;;8.23;6.13;;;;;;;;;;10064848;28;20054;-72
2022/07/27 07:12:05;;;;;;;6.05;5.45;;;;;;;;;;10068987;28;20136;-72
2022/07/27 07:17:00;;;;;;;6.65;5.40;;;;;;;;;;10069082;28;20037;-74
2022/07/27 07:21:54;;;;;;;7.65;5.93;;;;;;;;;;10061028;28;20505;-73
2022/07/27 07:26:48;;;;;;;10.50;6.05;;;;;;;;;;10070524;28;20095;-73
2022/07/27 07:31:42;;;;;;;7.38;5.82;;;;;;;;;;10067040;28;20049;-72
2022/07/27 07:36:37;;;;;;;6.05;3.95;;;;;;;;;;10070487;28;20056;-73
2022/07/27 07:41:32;;;;;;;4.20;3.80;;;;;;;;;;10071779;28;20060;-72
2022/07/27 07:46:25;;;;;;;3.78;3.38;;;;;;;;;;10070582;28;20068;-73
2022/07/27 07:51:19;;;;;;;4.30;3.55;;;;;;;;;;10069296;28;20057;-73
2022/07/27 07:56:15;;;;;;;5.90;3.17;;;;;;;;;;10068568;28;20405;-73
2022/07/27 08:01:10;;;;;;;3.35;3.05;;;;;;;;;;10070432;28;20049;-73
2022/07/27 08:06:05;;;;;;;4.88;2.92;;;;;;;;;;10069365;28;20050;-73
2022/07/27 08:10:59;;;;;;;7.25;3.90;;;;;;;;;;10068828;28;20587;-73
2022/07/27 08:15:53;;;;;;;9.23;6.00;;;;;;;;;;10064883;28;20115;-73
2022/07/27 08:20:46;;;;;;;5.78;4.95;;;;;;;;;;10068651;28;20057;-73
2022/07/27 08:25:40;;;;;;;4.97;3.90;;;;;;;;;;10066936;28;20053;-73
2022/07/27 08:30:33;;;;;;;5.63;4.93;;;;;;;;;;10069297;28;20081;-67
2022/07/27 08:35:28;;;;;;;5.50;4.15;;;;;;;;;;10070448;28;20511;-68
2022/07/27 08:40:22;;;;;;;5.85;4.57;;;;;;;;;;10066753;28;20049;-69
2022/07/27 08:45:36;;;;;;;7.85;4.25;;;;;;;;;;10068091;28;20052;-70
2022/07/27 08:50:32;;;;;;;5.07;4.45;;;;;;;;;;10066614;28;20063;-68
2022/07/27 08:55:27;;;;;;;8.38;4.10;;;;;;;;;;10065739;28;20152;-71
2022/07/27 09:00:22;;;;;;;9.50;5.40;;;;;;;;;;10063490;28;20051;-68
2022/07/27 09:05:16;;;;;;;5.55;4.50;;;;;;;;;;10059573;28;20054;-70
2022/07/27 09:10:10;;;;;;;17.33;6.30;;;;;;;;;;10063133;28;20104;-70
2022/07/27 09:15:12;;;;;;;7.75;3.97;;;;;;;;;;10064904;28;20129;-68
2022/07/27 09:20:12;;;;;;;8.55;6.32;;;;;;;;;;10065843;28;20061;-68
2022/07/27 09:25:13;;;;;;;7.28;5.50;;;;;;;;;;10060600;28;20042;-68
2022/07/27 09:30:10;;;;;;;17.13;6.80;;;;;;;;;;10057967;28;20131;-70
2022/07/27 09:35:22;;;;;;;11.50;5.00;;;;;;;;;;10062302;28;20492;-68
2022/07/27 09:40:19;;;;;;;3.60;2.90;;;;;;;;;;10060074;28;20103;-66
2022/07/27 09:45:33;;;;;;;3.90;3.22;;;;;;;;;;10046210;28;20081;-66
2022/07/27 09:50:27;;;;;;;5.15;4.65;;;;;;;;;;10059095;28;20103;-66
2022/07/27 09:55:27;;;;;;;9.07;5.05;;;;;;;;;;10061906;28;20100;-67
2022/07/27 10:00:23;;;;;;;4.97;4.45;;;;;;;;;;10055534;28;20064;-66
2022/07/27 10:05:20;;;;;;;10.85;5.40;;;;;;;;;;10045109;28;20049;-66
2022/07/27 10:10:14;;;;;;;4.80;4.40;;;;;;;;;;10060717;28;20454;-67
2022/07/27 10:15:10;;;;;;;6.20;5.43;;;;;;;;;;10053836;28;20045;-67
2022/07/27 10:20:09;;;;;;;7.97;5.83;;;;;;;;;;10049521;28;20136;-68
2022/07/27 10:25:02;;;;;;;7.97;5.00;;;;;;;;;;10056441;28;20042;-69
2022/07/27 10:29:56;;;;;;;7.40;4.43;;;;;;;;;;10051706;28;20057;-69
2022/07/27 10:34:49;;;;;;;5.40;4.55;;;;;;;;;;10063639;28;20489;-70
2022/07/27 10:39:45;;;;;;;6.60;5.97;;;;;;;;;;10055046;28;20401;-69
2022/07/27 10:44:50;;;;;;;;;;;;;;;;;;10063560;28;20045;-68
2022/07/27 10:49:44;;;;;;;7.68;4.45;;;;;;;;;;10068535;28;20004;-66
2022/07/27 10:54:40;;;;;;;6.85;4.63;;;;;;;;;;10069991;28;20481;-69
2022/07/27 10:59:41;;;;;;;4.70;3.22;;;;;;;;;;10064541;28;20076;-69
2022/07/27 11:04:55;;;;;;;9.55;6.10;;;;;;;;;;10060159;28;20053;-67
2022/07/27 11:09:51;;;;;;;7.65;3.95;;;;;;;;;;10060773;28;20085;-69
2022/07/27 11:14:58;;;;;;;5.70;5.20;;;;;;;;;;10059128;28;20096;-69
2022/07/27 11:19:56;;;;;;;6.47;4.20;;;;;;;;;;10056865;28;20060;-68
2022/07/27 11:24:50;;;;;;;7.35;4.78;;;;;;;;;;10052499;28;20049;-68
2022/07/27 11:29:44;;;;;;;4.97;4.25;;;;;;;;;;10056330;28;20583;-69
2022/07/27 11:34:39;;;;;;;7.07;4.35;;;;;;;;;;10051776;28;20095;-69
2022/07/27 11:39:33;;;;;;;6.18;5.32;;;;;;;;;;10056642;28;20061;-70
2022/07/27 11:44:47;;;;;;;9.35;5.07;;;;;;;;;;10068508;28;20503;-69
2022/07/27 11:49:42;;;;;;;3.97;3.35;;;;;;;;;;10068004;28;20400;-68
2022/07/27 11:54:41;;;;;;;12.23;4.15;;;;;;;;;;10070437;28;20091;-69
2022/07/27 11:59:34;;;;;;;5.25;4.35;;;;;;;;;;10059181;28;20041;-68
2022/07/27 12:04:29;;;;;;;9.25;3.50;;;;;;;;;;10063500;28;20081;-69
2022/07/27 12:09:24;;;;;;;4.88;3.58;;;;;;;;;;10064642;28;20060;-63
2022/07/27 12:14:27;;;;;;;4.60;3.28;;;;;;;;;;10060459;28;20050;-68
2022/07/27 12:19:22;;;;;;;4.13;3.03;;;;;;;;;;10065952;28;20492;-68
2022/07/27 12:24:17;;;;;;;4.28;3.00;;;;;;;;;;10066671;28;20042;-68
2022/07/27 12:29:11;;;;;;;3.00;2.53;;;;;;;;;;10047831;28;20567;-68
2022/07/27 12:34:06;;;;;;;5.18;2.70;;;;;;;;;;10051971;28;20567;-68
2022/07/27 12:39:00;;;;;;;3.03;2.63;;;;;;;;;;10065137;28;20065;-66
2022/07/27 12:44:16;;;;;;;3.35;2.40;;;;;;;;;;10064527;28;20492;-68
2022/07/27 12:49:16;;;;;;;9.45;2.58;;;;;;;;;;10059396;28;20088;-68
2022/07/27 12:54:11;;;;;;;3.95;2.53;;;;;;;;;;10069311;28;20042;-68
2022/07/27 12:59:06;;;;;;;3.73;2.30;;;;;;;;;;10057404;28;20057;-68
2022/07/27 13:04:00;;;;;;;5.45;2.97;;;;;;;;;;10065288;28;20072;-68
2022/07/27 13:08:56;;;;;;;3.67;3.22;;;;;;;;;;10068783;28;20052;-67
2022/07/27 13:13:51;;;;;;;3.70;2.70;;;;;;;;;;10059770;28;20046;-67
2022/07/27 13:18:45;;;;;;;3.45;2.78;;;;;;;;;;10070143;28;20065;-67
2022/07/27 13:23:38;;;;;;;4.75;3.35;;;;;;;;;;10073542;28;20053;-67
2022/07/27 13:28:33;;;;;;;4.03;2.10;;;;;;;;;;10066596;28;20045;-67
2022/07/27 13:33:27;;;;;;;5.00;2.42;;;;;;;;;;10061601;28;20073;-66
2022/07/27 13:38:21;;;;;;;7.53;2.50;;;;;;;;;;10061762;28;20108;-66
2022/07/27 13:43:15;;;;;;;3.75;2.50;;;;;;;;;;10058775;28;20053;-66
2022/07/27 13:48:10;;;;;;;4.30;2.78;;;;;;;;;;10058059;28;20049;-66
2022/07/27 13:53:05;;;;;;;5.20;2.47;;;;;;;;;;10055367;28;20561;-66
2022/07/27 13:57:59;;;;;;;3.13;2.37;;;;;;;;;;10061813;28;20648;-66
2022/07/27 14:02:53;;;;;;;3.33;2.83;;;;;;;;;;10062622;28;20045;-65
2022/07/27 14:07:47;;;;;;;3.70;2.60;;;;;;;;;;10058735;28;20049;-66
2022/07/27 14:12:40;;;;;;;3.67;2.70;;;;;;;;;;10064586;28;20049;-66
2022/07/27 14:17:36;;;;;;;2.78;2.10;;;;;;;;;;10061632;28;20077;-66
2022/07/27 14:22:29;;;;;;;3.60;2.28;;;;;;;;;;10059160;28;20115;-66
2022/07/27 14:27:23;;;;;;;8.65;2.80;;;;;;;;;;10059875;28;20102;-66
2022/07/27 14:32:17;;;;;;;3.83;2.15;;;;;;;;;;10058546;28;20107;-66
2022/07/27 14:37:10;;;;;;;7.40;2.67;;;;;;;;;;10053607;28;20053;-65
2022/07/27 14:42:06;;;;;;;7.50;2.50;;;;;;;;;;10057494;28;20057;-66
2022/07/27 14:47:00;;;;;;;3.03;2.10;;;;;;;;;;10056603;28;20053;-66
2022/07/27 14:51:53;;;;;;;2.97;2.40;;;;;;;;;;10061038;28;20095;-66
2022/07/27 14:56:47;;;;;;;5.13;2.40;;;;;;;;;;10069250;28;20051;-65
2022/07/27 15:01:41;;;;;;;2.88;2.33;;;;;;;;;;10063061;28;20055;-64
2022/07/27 15:06:36;;;;;;;2.60;2.40;;;;;;;;;;10069338;28;20082;-64
2022/07/27 15:11:30;;;;;;;3.95;3.00;;;;;;;;;;10074676;28;20049;-64
2022/07/27 15:16:25;;;;;;;9.95;3.05;;;;;;;;;;10057102;28;20401;-63
2022/07/27 15:21:18;;;;;;;6.60;3.00;;;;;;;;;;10054481;28;20515;-63
2022/07/27 15:26:14;;;;;;;3.75;2.58;;;;;;;;;;10065183;28;20049;-63
2022/07/27 15:31:10;;;;;;;4.43;3.17;;;;;;;;;;10073603;28;20061;-63
2022/07/27 15:36:05;;;;;;;4.32;3.03;;;;;;;;;;10069718;28;20045;-64
2022/07/27 15:40:58;;;;;;;4.30;3.28;;;;;;;;;;10076599;28;20057;-64
2022/07/27 15:45:52;;;;;;;7.65;3.03;;;;;;;;;;10063670;28;20132;-64
2022/07/27 15:50:49;;;;;;;5.63;2.75;;;;;;;;;;10063118;28;20049;-64
2022/07/27 15:55:43;;;;;;;5.43;3.00;;;;;;;;;;10082466;28;20091;-64
2022/07/27 16:00:37;;;;;;;5.05;3.10;;;;;;;;;;10019131;28;20065;-63
2022/07/27 16:05:34;;;;;;;4.15;2.83;;;;;;;;;;10080338;28;20053;-64
2022/07/27 16:10:30;;;;;;;4.88;2.90;;;;;;;;;;10073438;28;20052;-65
2022/07/27 16:16:20;;;;;;;4.70;2.45;;;;;;;;;;10073347;28;20084;-62
2022/07/27 16:20:37;;;;;;;3.80;2.53;;;;;;;;;;10071632;28;20060;-62
2022/07/27 16:25:32;;;;;;;5.70;2.63;;;;;;;;;;10077864;28;20072;-62
2022/07/27 16:30:45;;;;;;;3.97;2.80;;;;;;;;;;10069274;28;20070;-66
2022/07/27 16:35:41;;;;;;;9.40;2.88;;;;;;;;;;10075125;28;20053;-66
2022/07/27 16:40:35;;;;;;;5.70;2.72;;;;;;;;;;10070779;28;20104;-65
2022/07/27 16:45:29;;;;;;;7.18;4.32;;;;;;;;;;10062230;28;20062;-65
2022/07/27 16:50:23;;;;;;;4.22;3.40;;;;;;;;;;10058853;28;20042;-64
2022/07/27 16:55:17;;;;;;;5.07;3.38;;;;;;;;;;10060385;28;20135;-64
2022/07/27 17:00:19;;;;;;;4.43;2.25;;;;;;;;;;10066524;28;20053;-65
2022/07/27 17:05:13;;;;;;;4.60;2.70;;;;;;;;;;10068338;28;20216;-66
2022/07/27 17:10:08;;;;;;;4.68;2.45;;;;;;;;;;10067836;28;20056;-65
2022/07/27 17:15:03;;;;;;;3.40;2.50;;;;;;;;;;10074070;28;20091;-65
2022/07/27 17:19:58;;;;;;;5.47;2.95;;;;;;;;;;10084635;28;20573;-67
2022/07/27 17:24:52;;;;;;;3.97;3.58;;;;;;;;;;10063121;28;20091;-67
2022/07/27 17:29:46;;;;;;;7.40;3.10;;;;;;;;;;10062637;28;20103;-67
2022/07/27 17:34:40;;;;;;;5.47;2.80;;;;;;;;;;10058564;28;20061;-67
2022/07/27 17:39:34;;;;;;;4.80;2.25;;;;;;;;;;10058757;28;20123;-67
2022/07/27 17:44:31;;;;;;;4.90;2.70;;;;;;;;;;10062181;28;20060;-67
2022/07/27 17:49:25;;;;;;;5.28;3.75;;;;;;;;;;10064960;28;20045;-67
2022/07/27 17:54:19;;;;;;;4.70;2.90;;;;;;;;;;10061102;28;20772;-70
2022/07/27 17:59:13;;;;;;;7.10;2.90;;;;;;;;;;10067132;28;20057;-67
2022/07/27 18:04:29;;;;;;;5.78;2.70;;;;;;;;;;10063990;28;20052;-67
2022/07/27 18:09:23;;;;;;;3.00;2.50;;;;;;;;;;10060880;28;20099;-67
2022/07/27 18:14:18;;;;;;;6.57;2.78;;;;;;;;;;10065877;28;21269;-67
2022/07/27 18:19:12;;;;;;;9.18;2.95;;;;;;;;;;10067034;28;20053;-68
2022/07/27 18:24:07;;;;;;;5.72;3.22;;;;;;;;;;10068255;28;20092;-67
2022/07/27 18:29:02;;;;;;;9.63;3.57;;;;;;;;;;10066121;28;20046;-66
2022/07/27 18:33:57;;;;;;;5.03;4.15;;;;;;;;;;10056524;28;20052;-65
2022/07/27 18:38:52;;;;;;;4.38;3.75;;;;;;;;;;10051148;28;20041;-64
2022/07/27 18:43:52;;;;;;;6.38;4.03;;;;;;;;;;10060898;28;20045;-65
2022/07/27 18:48:45;;;;;;;5.95;3.67;;;;;;;;;;10057147;28;20515;-65
2022/07/27 18:53:38;;;;;;;8.95;4.05;;;;;;;;;;10069327;28;20051;-63
2022/07/27 18:58:33;;;;;;;4.65;4.15;;;;;;;;;;10067361;28;20049;-64
2022/07/27 19:03:27;;;;;;;5.45;3.63;;;;;;;;;;10063933;28;20049;-65
2022/07/27 19:08:22;;;;;;;5.97;3.78;;;;;;;;;;10060491;28;20120;-65
2022/07/27 19:13:15;;;;;;;9.70;4.05;;;;;;;;;;10060533;28;20067;-65
2022/07/27 19:18:09;;;;;;;6.55;4.10;;;;;;;;;;10070713;28;20057;-65
2022/07/27 19:23:05;;;;;;;10.52;4.07;;;;;;;;;;10071205;28;20057;-66
2022/07/27 19:28:02;;;;;;;7.60;4.00;;;;;;;;;;10067992;28;20051;-65
2022/07/27 19:32:56;;;;;;;6.07;3.80;;;;;;;;;;10067796;28;20053;-66
2022/07/27 19:37:50;;;;;;;6.43;4.00;;;;;;;;;;10063235;28;20497;-67
2022/07/27 19:42:44;;;;;;;6.63;4.38;;;;;;;;;;10065932;28;20073;-67
2022/07/27 19:47:38;;;;;;;5.85;3.85;;;;;;;;;;10073369;28;20495;-66
2022/07/27 19:52:33;;;;;;;5.93;4.13;;;;;;;;;;10070807;28;20096;-66
2022/07/27 19:57:27;;;;;;;6.35;3.53;;;;;;;;;;10066803;28;20122;-66
2022/07/27 20:02:21;;;;;;;4.03;3.63;;;;;;;;;;10066178;28;20526;-64
2022/07/27 20:07:15;;;;;;;5.03;3.15;;;;;;;;;;10062278;28;20056;-65
2022/07/27 20:12:09;;;;;;;5.00;3.97;;;;;;;;;;10073729;28;20045;-64
2022/07/27 20:17:05;;;;;;;3.45;3.13;;;;;;;;;;10070172;28;20128;-67
2022/07/27 20:22:00;;;;;;;6.47;3.42;;;;;;;;;;10063751;28;20049;-67
2022/07/27 20:26:55;;;;;;;7.25;3.78;;;;;;;;;;10067014;28;20455;-66
2022/07/27 20:31:50;;;;;;;8.27;3.20;;;;;;;;;;10062275;28;20072;-65
2022/07/27 20:36:48;;;;;;;;;;;;;;;;;;10057030;28;20056;-71
2022/07/27 20:41:41;;;;;;;7.10;3.70;;;;;;;;;;10058540;28;19928;-64
2022/07/27 20:46:37;;;;;;;16.25;3.60;;;;;;;;;;10057382;28;20085;-65
2022/07/27 20:51:32;;;;;;;;;;;;;;;;;;10060841;28;20060;-64
2022/07/27 20:56:26;;;;;;;14.45;4.38;;;;;;;;;;10058829;28;20592;-65
2022/07/27 21:01:19;;;;;;;3.67;3.05;;;;;;;;;;10074383;28;20053;-66
2022/07/27 21:06:14;;;;;;;9.07;5.22;;;;;;;;;;10069491;28;20049;-64
2022/07/27 21:11:09;;;;;;;7.25;3.35;;;;;;;;;;10068822;28;20111;-64
2022/07/27 21:16:04;;;;;;;8.68;3.92;;;;;;;;;;10064954;28;20084;-64
2022/07/27 21:20:59;;;;;;;5.80;3.78;;;;;;;;;;10062625;28;20057;-64
2022/07/27 21:25:52;;;;;;;3.63;3.33;;;;;;;;;;10062968;28;20053;-65
2022/07/27 21:30:49;;;;;;;8.45;3.80;;;;;;;;;;10067343;28;20053;-65
2022/07/27 21:35:43;;;;;;;8.30;3.88;;;;;;;;;;10067553;28;20059;-62
2022/07/27 21:40:37;;;;;;;10.38;3.75;;;;;;;;;;10073819;28;20049;-62
2022/07/27 21:45:32;;;;;;;5.82;3.28;;;;;;;;;;10067506;28;20088;-64
2022/07/27 21:50:26;;;;;;;3.75;2.85;;;;;;;;;;10057469;28;20069;-64
2022/07/27 21:55:20;;;;;;;9.30;4.68;;;;;;;;;;10065968;28;20049;-63
2022/07/27 22:00:16;;;;;;;7.15;4.07;;;;;;;;;;10066833;28;20056;-64
2022/07/27 22:05:10;;;;;;;19.90;4.47;;;;;;;;;;10060777;28;20148;-64
2022/07/27 22:10:05;;;;;;;8.10;4.10;;;;;;;;;;10067344;28;20057;-64
2022/07/27 22:14:59;;;;;;;13.68;4.00;;;;;;;;;;10065782;28;20054;-63
2022/07/27 22:19:54;;;;;;;10.52;3.92;;;;;;;;;;10066221;28;20049;-64
2022/07/27 22:24:48;;;;;;;6.55;4.00;;;;;;;;;;10065774;28;20053;-63
2022/07/27 22:29:42;;;;;;;8.15;3.25;;;;;;;;;;10063126;28;20096;-64
2022/07/27 22:34:37;;;;;;;10.63;3.70;;;;;;;;;;10062347;28;20051;-64
2022/07/27 22:39:33;;;;;;;6.75;4.03;;;;;;;;;;10071422;28;20512;-63
2022/07/27 22:44:30;;;;;;;6.18;3.88;;;;;;;;;;10071927;28;20049;-64
2022/07/27 22:49:24;;;;;;;10.65;4.13;;;;;;;;;;10086274;28;20385;-64
2022/07/27 22:54:19;;;;;;;9.40;4.40;;;;;;;;;;10086843;28;20053;-65
2022/07/27 22:59:12;;;;;;;5.78;4.80;;;;;;;;;;10087670;28;20057;-63
2022/07/27 23:04:06;;;;;;;7.78;3.97;;;;;;;;;;10081061;28;20474;-64
2022/07/27 23:09:00;;;;;;;8.70;3.75;;;;;;;;;;10086258;28;20049;-63
2022/07/27 23:13:54;;;;;;;8.45;4.65;;;;;;;;;;10074390;28;20055;-64
2022/07/27 23:18:47;;;;;;;8.35;4.20;;;;;;;;;;10064045;28;20071;-65
2022/07/27 23:23:41;;;;;;;4.88;4.05;;;;;;;;;;10063884;28;20049;-64
2022/07/27 23:28:46;;;;;;;10.48;5.15;;;;;;;;;;10067795;28;20044;-64
2022/07/27 23:33:40;;;;;;;8.25;3.95;;;;;;;;;;10070904;28;20526;-64
2022/07/27 23:38:34;;;;;;;5.28;4.30;;;;;;;;;;10082851;28;20052;-66
2022/07/27 23:43:28;;;;;;;9.23;4.18;;;;;;;;;;10065169;28;20053;-65
2022/07/27 23:48:22;;;;;;;6.20;4.63;;;;;;;;;;10065659;28;20053;-65
2022/07/27 23:53:17;;;;;;;9.07;4.55;;;;;;;;;;10079303;28;20057;-65
2022/07/27 23:58:11;;;;;;;9.30;4.55;;;;;;;;;;10069376;28;20054;-66
